Time;durP1;ratioP1;P1;durP2;ratioP2;P2;SDS_P1;SDS_P2;PMS_P1;PMS_P2;Temp;Humidity;BMP_temperature;BMP_pressure;BME280_temperature;BME280_humidity;BME280_pressure;Samples;Min_cycle;Max_cycle;Signal;HPM_P1;HPM_P2
2024/01/20 00:01:07;;;;;;;11.75;7.63;;;;;;;;;;5094801;28;20203;-81
2024/01/20 00:03:35;;;;;;;12.20;9.40;;;;;;;;;;5094896;28;20220;-81
2024/01/20 00:06:02;;;;;;;15.98;11.88;;;;;;;;;;5094711;28;20710;-81
2024/01/20 00:08:30;;;;;;;14.35;9.20;;;;;;;;;;5094703;28;20196;-81
2024/01/20 00:10:57;;;;;;;17.63;11.00;;;;;;;;;;5095006;28;20196;-81
2024/01/20 00:13:24;;;;;;;14.55;9.63;;;;;;;;;;5095055;28;20718;-81
2024/01/20 00:15:52;;;;;;;12.23;8.68;;;;;;;;;;5095131;28;20636;-80
2024/01/20 00:18:21;;;;;;;14.45;11.38;;;;;;;;;;5094908;28;20210;-80
2024/01/20 00:20:48;;;;;;;16.55;10.40;;;;;;;;;;5095262;28;20204;-80
2024/01/20 00:23:18;;;;;;;12.15;7.18;;;;;;;;;;5094808;28;20222;-81
2024/01/20 00:25:45;;;;;;;12.35;8.90;;;;;;;;;;5092541;28;20694;-81
2024/01/20 00:28:13;;;;;;;13.63;9.45;;;;;;;;;;5078919;28;20201;-81
2024/01/20 00:30:40;;;;;;;13.45;9.70;;;;;;;;;;5094715;28;20295;-81
2024/01/20 00:33:08;;;;;;;14.57;10.45;;;;;;;;;;5088980;28;20266;-81
2024/01/20 00:35:42;;;;;;;12.20;8.48;;;;;;;;;;5088525;28;20568;-81
2024/01/20 00:38:09;;;;;;;8.95;6.88;;;;;;;;;;5080541;28;20596;-81
2024/01/20 00:40:37;;;;;;;15.25;10.13;;;;;;;;;;5086742;28;20197;-81
2024/01/20 00:43:05;;;;;;;14.55;8.55;;;;;;;;;;5094464;28;20196;-82
2024/01/20 00:45:32;;;;;;;12.38;9.90;;;;;;;;;;5092544;28;20307;-81
2024/01/20 00:48:00;;;;;;;8.18;7.35;;;;;;;;;;5092990;28;20235;-81
2024/01/20 00:50:27;;;;;;;11.15;8.25;;;;;;;;;;5089869;28;20207;-81
2024/01/20 00:52:56;;;;;;;15.88;10.93;;;;;;;;;;5094445;28;20250;-79
2024/01/20 00:55:23;;;;;;;13.52;9.48;;;;;;;;;;5094699;28;20212;-80
2024/01/20 00:57:51;;;;;;;15.25;9.35;;;;;;;;;;5082917;28;20211;-80
2024/01/20 01:00:19;;;;;;;13.68;8.90;;;;;;;;;;5093456;28;20665;-79
2024/01/20 01:02:46;;;;;;;12.80;8.48;;;;;;;;;;5081979;28;20239;-79
2024/01/20 01:05:14;;;;;;;19.27;11.70;;;;;;;;;;5089709;28;20259;-81
2024/01/20 01:07:41;;;;;;;12.73;10.05;;;;;;;;;;5094448;28;20197;-81
2024/01/20 01:10:10;;;;;;;13.38;9.00;;;;;;;;;;5090997;28;20204;-81
2024/01/20 01:12:38;;;;;;;10.63;6.40;;;;;;;;;;5095094;28;20689;-81
2024/01/20 01:15:07;;;;;;;15.55;10.30;;;;;;;;;;5082537;28;20726;-81
2024/01/20 01:17:34;;;;;;;9.07;7.53;;;;;;;;;;5088972;28;20241;-81
2024/01/20 01:20:02;;;;;;;8.75;6.68;;;;;;;;;;5091619;28;20698;-80
2024/01/20 01:22:30;;;;;;;10.95;7.40;;;;;;;;;;5096751;28;20201;-80
2024/01/20 01:24:57;;;;;;;12.77;7.85;;;;;;;;;;5086997;28;20747;-81
2024/01/20 01:27:26;;;;;;;19.38;12.20;;;;;;;;;;5086999;28;20291;-81
2024/01/20 01:29:54;;;;;;;13.30;10.13;;;;;;;;;;5085913;28;20192;-81
2024/01/20 01:32:21;;;;;;;18.02;10.60;;;;;;;;;;5084723;28;20581;-80
2024/01/20 01:34:48;;;;;;;13.15;9.77;;;;;;;;;;5086557;28;20304;-81
2024/01/20 01:37:16;;;;;;;15.43;9.93;;;;;;;;;;5096572;28;20218;-81
2024/01/20 01:39:44;;;;;;;10.95;9.68;;;;;;;;;;5097191;28;20209;-81
2024/01/20 01:42:11;;;;;;;16.55;10.38;;;;;;;;;;5087259;28;20201;-81
2024/01/20 01:44:40;;;;;;;13.35;10.00;;;;;;;;;;5090024;28;20606;-81
2024/01/20 01:47:07;;;;;;;9.55;8.23;;;;;;;;;;5087867;28;20682;-80
2024/01/20 01:49:35;;;;;;;14.52;10.18;;;;;;;;;;5096061;28;20201;-81
2024/01/20 01:52:03;;;;;;;12.57;8.48;;;;;;;;;;5095047;28;20206;-82
2024/01/20 01:54:30;;;;;;;16.50;9.45;;;;;;;;;;5083932;28;20224;-80
2024/01/20 01:57:00;;;;;;;13.50;10.07;;;;;;;;;;5090218;28;20596;-79
2024/01/20 01:59:30;;;;;;;17.83;9.82;;;;;;;;;;5093021;28;20212;-80
2024/01/20 02:01:59;;;;;;;13.65;9.10;;;;;;;;;;5093669;28;20283;-80
2024/01/20 02:04:27;;;;;;;10.85;7.10;;;;;;;;;;5094250;28;20254;-81
2024/01/20 02:06:54;;;;;;;11.90;8.55;;;;;;;;;;5095326;28;20269;-81
2024/01/20 02:09:22;;;;;;;9.38;5.88;;;;;;;;;;5086116;28;20283;-81
2024/01/20 02:11:50;;;;;;;14.60;9.68;;;;;;;;;;5096026;28;20197;-82
2024/01/20 02:14:18;;;;;;;9.93;7.55;;;;;;;;;;5095723;28;20231;-80
2024/01/20 02:16:46;;;;;;;9.77;6.68;;;;;;;;;;5094181;28;20202;-79
2024/01/20 02:19:15;;;;;;;12.52;9.20;;;;;;;;;;5089938;28;20290;-82
2024/01/20 02:21:42;;;;;;;10.77;7.78;;;;;;;;;;5089363;28;20232;-81
2024/01/20 02:24:12;;;;;;;10.88;8.25;;;;;;;;;;5097969;28;20276;-81
2024/01/20 02:26:39;;;;;;;7.78;6.97;;;;;;;;;;5090689;28;20202;-79
2024/01/20 02:29:07;;;;;;;9.95;6.80;;;;;;;;;;5092961;28;20205;-81
2024/01/20 02:31:34;;;;;;;18.27;8.05;;;;;;;;;;5095825;28;20207;-81
2024/01/20 02:34:02;;;;;;;6.75;5.53;;;;;;;;;;5091313;28;20675;-80
2024/01/20 02:36:29;;;;;;;6.97;5.13;;;;;;;;;;5084071;28;20213;-81
2024/01/20 02:38:56;;;;;;;8.23;6.80;;;;;;;;;;5088664;28;20642;-80
2024/01/20 02:41:25;;;;;;;13.38;9.93;;;;;;;;;;5094298;28;20196;-80
2024/01/20 02:43:53;;;;;;;15.40;10.15;;;;;;;;;;5090243;28;20644;-79
2024/01/20 02:46:20;;;;;;;10.02;8.20;;;;;;;;;;5095215;28;20224;-81
2024/01/20 02:48:48;;;;;;;14.10;8.57;;;;;;;;;;5087986;28;20231;-81
2024/01/20 02:51:15;;;;;;;11.32;8.82;;;;;;;;;;5091747;28;20742;-80
2024/01/20 02:53:42;;;;;;;14.00;9.32;;;;;;;;;;5095299;28;20210;-80
2024/01/20 02:56:10;;;;;;;9.88;8.23;;;;;;;;;;5094776;28;20295;-81
2024/01/20 02:58:39;;;;;;;11.90;8.63;;;;;;;;;;5095547;28;20200;-81
2024/01/20 03:01:07;;;;;;;10.38;7.78;;;;;;;;;;5084699;28;20668;-79
2024/01/20 03:03:35;;;;;;;10.15;7.95;;;;;;;;;;5082453;28;20205;-80
2024/01/20 03:06:02;;;;;;;9.20;7.93;;;;;;;;;;5092287;28;20279;-81
2024/01/20 03:08:30;;;;;;;11.88;8.23;;;;;;;;;;5092773;28;20722;-81
2024/01/20 03:10:57;;;;;;;7.35;6.30;;;;;;;;;;5094679;28;20292;-81
2024/01/20 03:13:25;;;;;;;8.35;6.45;;;;;;;;;;5089638;28;20202;-81
2024/01/20 03:15:54;;;;;;;11.80;8.02;;;;;;;;;;5082234;28;20239;-81
2024/01/20 03:18:21;;;;;;;11.00;8.52;;;;;;;;;;5091879;28;20227;-80
2024/01/20 03:20:48;;;;;;;8.68;7.18;;;;;;;;;;5091989;28;20215;-81
2024/01/20 03:23:16;;;;;;;7.38;6.53;;;;;;;;;;5095243;28;20295;-81
2024/01/20 03:25:43;;;;;;;10.52;8.13;;;;;;;;;;5087080;28;20237;-79
2024/01/20 03:28:11;;;;;;;11.38;8.15;;;;;;;;;;5087416;28;20215;-80
2024/01/20 03:30:38;;;;;;;7.40;6.40;;;;;;;;;;5094160;28;20208;-81
2024/01/20 03:33:07;;;;;;;11.30;8.68;;;;;;;;;;5089145;28;20267;-81
2024/01/20 03:35:34;;;;;;;12.32;8.38;;;;;;;;;;5094193;28;20311;-80
2024/01/20 03:38:02;;;;;;;9.88;7.78;;;;;;;;;;5095338;28;20200;-81
2024/01/20 03:40:29;;;;;;;8.93;6.57;;;;;;;;;;5082896;28;20300;-81
2024/01/20 03:42:57;;;;;;;10.95;8.35;;;;;;;;;;5088581;28;20292;-80
2024/01/20 03:45:24;;;;;;;13.10;8.57;;;;;;;;;;5095752;28;20236;-81
2024/01/20 03:47:52;;;;;;;15.32;10.45;;;;;;;;;;5087445;28;20197;-81
2024/01/20 03:50:21;;;;;;;13.13;8.05;;;;;;;;;;5096496;28;20208;-80
2024/01/20 03:52:48;;;;;;;9.95;7.78;;;;;;;;;;5084579;28;20291;-81
2024/01/20 03:55:16;;;;;;;9.60;6.88;;;;;;;;;;5090667;28;20283;-81
2024/01/20 03:57:43;;;;;;;10.27;6.97;;;;;;;;;;5088334;28;20287;-80
2024/01/20 04:00:12;;;;;;;10.25;7.00;;;;;;;;;;5090112;28;20293;-81
2024/01/20 04:02:39;;;;;;;9.52;6.53;;;;;;;;;;5093670;28;20706;-79
2024/01/20 04:05:08;;;;;;;11.43;8.65;;;;;;;;;;5094324;28;20304;-81
2024/01/20 04:07:37;;;;;;;13.70;10.38;;;;;;;;;;5086065;28;20215;-79
2024/01/20 04:10:05;;;;;;;9.57;6.53;;;;;;;;;;5088847;28;20194;-80
2024/01/20 04:12:33;;;;;;;8.95;7.05;;;;;;;;;;5093372;28;20651;-81
2024/01/20 04:15:00;;;;;;;10.23;7.95;;;;;;;;;;5089513;28;20308;-81
2024/01/20 04:17:28;;;;;;;12.68;9.07;;;;;;;;;;5090205;28;20200;-81
2024/01/20 04:19:55;;;;;;;11.57;8.25;;;;;;;;;;5093473;28;20649;-80
2024/01/20 04:22:23;;;;;;;8.07;6.65;;;;;;;;;;5088747;28;20204;-81
2024/01/20 04:24:52;;;;;;;9.77;7.25;;;;;;;;;;5092832;28;20306;-81
2024/01/20 04:27:19;;;;;;;10.77;8.40;;;;;;;;;;5089475;28;20226;-80
2024/01/20 04:29:46;;;;;;;10.45;6.85;;;;;;;;;;5088430;28;20303;-81
2024/01/20 04:32:14;;;;;;;9.95;6.28;;;;;;;;;;5082087;28;20651;-79
2024/01/20 04:34:41;;;;;;;7.97;5.68;;;;;;;;;;5087458;28;20220;-80
2024/01/20 04:37:09;;;;;;;9.15;7.25;;;;;;;;;;5090714;28;20208;-80
2024/01/20 04:39:36;;;;;;;11.65;7.75;;;;;;;;;;5093550;28;20287;-81
2024/01/20 04:42:06;;;;;;;9.25;6.93;;;;;;;;;;5089745;28;20619;-81
2024/01/20 04:44:33;;;;;;;7.97;6.53;;;;;;;;;;5083512;28;20307;-81
2024/01/20 04:47:01;;;;;;;12.43;7.65;;;;;;;;;;5097927;28;20220;-81
2024/01/20 04:49:29;;;;;;;11.63;8.23;;;;;;;;;;5092701;28;20296;-80
2024/01/20 04:51:57;;;;;;;10.77;7.53;;;;;;;;;;5086392;28;20207;-80
2024/01/20 04:54:24;;;;;;;16.73;10.70;;;;;;;;;;5095466;28;20196;-81
2024/01/20 04:56:52;;;;;;;11.23;7.93;;;;;;;;;;5090566;28;20265;-81
2024/01/20 04:59:21;;;;;;;9.52;7.60;;;;;;;;;;5092006;28;20202;-80
2024/01/20 05:01:48;;;;;;;12.38;7.90;;;;;;;;;;5095162;28;20202;-80
2024/01/20 05:04:16;;;;;;;10.00;6.32;;;;;;;;;;5091904;28;20204;-80
2024/01/20 05:06:45;;;;;;;8.80;7.20;;;;;;;;;;5097526;28;20254;-81
2024/01/20 05:09:13;;;;;;;8.25;6.45;;;;;;;;;;5092002;28;20218;-80
2024/01/20 05:11:40;;;;;;;10.38;8.00;;;;;;;;;;5096059;28;20293;-81
2024/01/20 05:14:08;;;;;;;8.70;6.10;;;;;;;;;;5083169;28;20615;-80
2024/01/20 05:16:37;;;;;;;6.55;5.38;;;;;;;;;;5079666;28;20294;-80
2024/01/20 05:19:04;;;;;;;10.45;6.82;;;;;;;;;;5092120;28;20211;-79
2024/01/20 05:21:33;;;;;;;10.93;8.32;;;;;;;;;;5091463;28;20203;-81
2024/01/20 05:24:00;;;;;;;11.70;6.55;;;;;;;;;;5098729;28;20689;-80
2024/01/20 05:26:28;;;;;;;8.40;6.05;;;;;;;;;;5098356;28;20259;-80
2024/01/20 05:28:56;;;;;;;11.30;8.48;;;;;;;;;;5099081;28;20224;-81
2024/01/20 05:31:24;;;;;;;10.32;7.43;;;;;;;;;;5098494;28;20196;-80
2024/01/20 05:33:53;;;;;;;11.98;8.50;;;;;;;;;;5090099;28;20563;-82
2024/01/20 05:36:20;;;;;;;12.23;8.48;;;;;;;;;;5091131;28;20775;-81
2024/01/20 05:38:48;;;;;;;10.90;8.30;;;;;;;;;;5095617;28;20293;-81
2024/01/20 05:41:16;;;;;;;16.75;9.70;;;;;;;;;;5098868;28;20192;-81
2024/01/20 05:43:43;;;;;;;10.93;8.32;;;;;;;;;;5089429;28;20204;-79
2024/01/20 05:46:11;;;;;;;11.50;9.50;;;;;;;;;;5098586;28;20215;-79
2024/01/20 05:48:38;;;;;;;13.65;10.00;;;;;;;;;;5091794;28;20197;-80
2024/01/20 05:51:07;;;;;;;16.92;11.40;;;;;;;;;;5087692;28;20203;-82
2024/01/20 05:53:35;;;;;;;17.08;11.98;;;;;;;;;;5094192;28;20200;-80
2024/01/20 05:56:02;;;;;;;10.55;7.70;;;;;;;;;;5095162;28;20244;-82
2024/01/20 05:58:29;;;;;;;12.63;8.52;;;;;;;;;;5090218;28;20280;-80
2024/01/20 06:00:57;;;;;;;11.65;8.35;;;;;;;;;;5096138;28;20614;-80
2024/01/20 06:03:26;;;;;;;12.10;9.13;;;;;;;;;;5097460;28;20287;-81
2024/01/20 06:05:53;;;;;;;12.57;8.38;;;;;;;;;;5094791;28;20281;-81
2024/01/20 06:08:22;;;;;;;12.07;7.50;;;;;;;;;;5093930;28;20220;-81
2024/01/20 06:10:50;;;;;;;12.00;8.10;;;;;;;;;;5093703;28;20291;-79
2024/01/20 06:13:17;;;;;;;16.98;11.40;;;;;;;;;;5089428;28;20200;-80
2024/01/20 06:15:45;;;;;;;9.02;7.55;;;;;;;;;;5097703;28;20220;-80
2024/01/20 06:18:12;;;;;;;10.25;6.93;;;;;;;;;;5091637;28;20651;-80
2024/01/20 06:20:40;;;;;;;13.77;9.18;;;;;;;;;;5090022;28;20229;-80
2024/01/20 06:23:07;;;;;;;16.75;12.07;;;;;;;;;;5081377;28;20552;-80
2024/01/20 06:25:36;;;;;;;10.13;8.18;;;;;;;;;;5087265;28;20311;-81
2024/01/20 06:28:05;;;;;;;14.73;9.55;;;;;;;;;;5087937;28;20217;-79
2024/01/20 06:30:33;;;;;;;14.85;10.63;;;;;;;;;;5089357;28;20211;-81
2024/01/20 06:33:00;;;;;;;13.20;9.95;;;;;;;;;;5090966;28;20555;-80
2024/01/20 06:35:28;;;;;;;19.90;11.20;;;;;;;;;;5096564;28;20220;-80
2024/01/20 06:37:55;;;;;;;13.93;10.25;;;;;;;;;;5088039;28;20218;-80
2024/01/20 06:40:22;;;;;;;16.90;11.27;;;;;;;;;;5082437;28;20196;-81
2024/01/20 06:42:50;;;;;;;15.85;10.75;;;;;;;;;;5092077;28;20200;-80
2024/01/20 06:45:18;;;;;;;12.90;10.95;;;;;;;;;;5092409;28;20585;-80
2024/01/20 06:47:45;;;;;;;11.63;8.82;;;;;;;;;;5088818;28;20288;-80
2024/01/20 06:50:14;;;;;;;11.48;8.20;;;;;;;;;;5090576;28;20201;-80
2024/01/20 06:52:42;;;;;;;9.77;8.13;;;;;;;;;;5094123;28;20219;-81
2024/01/20 06:55:10;;;;;;;13.70;9.88;;;;;;;;;;5096781;28;20601;-81
2024/01/20 06:57:37;;;;;;;11.63;8.70;;;;;;;;;;5088822;28;20644;-79
2024/01/20 07:00:08;;;;;;;14.90;10.95;;;;;;;;;;5097293;28;20214;-80
2024/01/20 07:02:36;;;;;;;15.45;9.43;;;;;;;;;;5090793;28;20201;-80
2024/01/20 07:05:03;;;;;;;20.20;12.43;;;;;;;;;;5096646;28;20216;-80
2024/01/20 07:07:31;;;;;;;13.20;9.98;;;;;;;;;;5095164;28;20598;-81
2024/01/20 07:09:58;;;;;;;11.77;8.40;;;;;;;;;;5095234;28;20196;-81
2024/01/20 07:12:26;;;;;;;8.77;6.93;;;;;;;;;;5088659;28;20317;-80
2024/01/20 07:14:53;;;;;;;10.65;7.53;;;;;;;;;;5094603;28;20252;-81
2024/01/20 07:17:22;;;;;;;12.98;9.75;;;;;;;;;;5096849;28;20278;-81
2024/01/20 07:19:49;;;;;;;10.82;7.28;;;;;;;;;;5093105;28;20212;-81
2024/01/20 07:22:17;;;;;;;7.03;6.10;;;;;;;;;;5091119;28;20575;-80
2024/01/20 07:24:44;;;;;;;8.60;6.68;;;;;;;;;;5096153;28;20259;-81
2024/01/20 07:27:12;;;;;;;12.18;9.32;;;;;;;;;;5096690;28;20283;-79
2024/01/20 07:29:41;;;;;;;13.80;8.93;;;;;;;;;;5095897;28;20290;-81
2024/01/20 07:32:08;;;;;;;12.70;9.38;;;;;;;;;;5096748;28;20203;-80
2024/01/20 07:34:37;;;;;;;15.13;10.10;;;;;;;;;;5097431;28;20226;-80
2024/01/20 07:37:06;;;;;;;15.32;10.45;;;;;;;;;;5056268;28;20244;-81
2024/01/20 07:39:33;;;;;;;11.52;8.27;;;;;;;;;;5056161;28;20261;-80
2024/01/20 07:42:01;;;;;;;9.90;7.60;;;;;;;;;;5055766;28;20212;-78
2024/01/20 07:44:28;;;;;;;14.38;9.77;;;;;;;;;;5055922;28;20221;-80
2024/01/20 07:46:56;;;;;;;16.05;10.30;;;;;;;;;;5055962;28;20197;-80
2024/01/20 07:49:24;;;;;;;12.10;9.68;;;;;;;;;;5056332;28;20221;-80
2024/01/20 07:51:52;;;;;;;10.63;7.65;;;;;;;;;;5056739;28;20202;-79
2024/01/20 07:54:20;;;;;;;14.27;9.13;;;;;;;;;;5055917;28;20680;-80
2024/01/20 07:56:47;;;;;;;9.75;8.18;;;;;;;;;;5055614;28;20297;-81
2024/01/20 07:59:16;;;;;;;11.40;7.95;;;;;;;;;;5056101;28;20691;-79
2024/01/20 08:01:43;;;;;;;7.45;5.57;;;;;;;;;;5056035;28;20201;-80
2024/01/20 08:04:11;;;;;;;9.85;6.55;;;;;;;;;;5055857;28;20212;-81
2024/01/20 08:06:38;;;;;;;10.82;8.18;;;;;;;;;;5056159;28;20628;-78
2024/01/20 08:09:07;;;;;;;9.98;7.43;;;;;;;;;;5055341;28;20243;-81
2024/01/20 08:11:35;;;;;;;10.85;7.32;;;;;;;;;;5055935;28;20284;-81
2024/01/20 08:14:02;;;;;;;15.95;11.13;;;;;;;;;;5056191;28;20269;-80
2024/01/20 08:16:30;;;;;;;17.10;11.13;;;;;;;;;;5059455;28;20221;-81
2024/01/20 08:19:00;;;;;;;15.00;11.65;;;;;;;;;;5059424;28;20206;-80
2024/01/20 08:21:27;;;;;;;17.77;11.38;;;;;;;;;;5059288;28;20629;-79
2024/01/20 08:23:55;;;;;;;16.10;10.98;;;;;;;;;;5059160;28;20201;-80
2024/01/20 08:26:24;;;;;;;12.70;7.75;;;;;;;;;;5058713;28;20221;-81
2024/01/20 08:28:51;;;;;;;13.68;9.90;;;;;;;;;;5058648;28;20221;-82
2024/01/20 08:31:18;;;;;;;11.45;8.77;;;;;;;;;;5058587;28;20205;-81
2024/01/20 08:33:46;;;;;;;16.77;12.20;;;;;;;;;;5058893;28;20205;-81
2024/01/20 08:36:13;;;;;;;13.38;9.48;;;;;;;;;;5058746;28;20423;-80
2024/01/20 08:38:41;;;;;;;10.25;8.48;;;;;;;;;;5058302;28;20197;-80
2024/01/20 08:41:09;;;;;;;12.95;8.43;;;;;;;;;;5058806;28;20201;-81
2024/01/20 08:43:43;;;;;;;12.95;9.35;;;;;;;;;;5058759;28;20208;-81
2024/01/20 08:46:10;;;;;;;12.05;8.10;;;;;;;;;;5058445;28;20226;-81
2024/01/20 08:48:38;;;;;;;12.02;9.10;;;;;;;;;;5062851;28;20221;-81
2024/01/20 08:51:06;;;;;;;12.85;9.27;;;;;;;;;;5082753;28;20284;-81
2024/01/20 08:53:33;;;;;;;12.68;9.30;;;;;;;;;;5093072;28;20228;-81
2024/01/20 08:56:03;;;;;;;11.57;9.40;;;;;;;;;;5099914;28;20272;-81
2024/01/20 08:58:31;;;;;;;13.27;9.85;;;;;;;;;;5099173;28;20201;-81
2024/01/20 09:00:59;;;;;;;15.60;10.57;;;;;;;;;;5096231;28;20197;-81
2024/01/20 09:03:27;;;;;;;12.25;9.02;;;;;;;;;;5088018;28;20625;-80
2024/01/20 09:05:54;;;;;;;13.50;9.50;;;;;;;;;;5098911;28;20307;-81
2024/01/20 09:08:22;;;;;;;13.98;9.93;;;;;;;;;;5098739;28;20192;-81
2024/01/20 09:10:49;;;;;;;15.10;10.63;;;;;;;;;;5095984;28;20202;-81
2024/01/20 09:13:17;;;;;;;15.68;9.85;;;;;;;;;;5100169;28;20562;-82
2024/01/20 09:15:45;;;;;;;11.98;9.20;;;;;;;;;;5093429;28;20224;-80
2024/01/20 09:18:16;;;;;;;16.02;9.77;;;;;;;;;;5099804;28;20196;-81
2024/01/20 09:20:43;;;;;;;14.68;9.70;;;;;;;;;;5099014;28;20253;-82
2024/01/20 09:23:11;;;;;;;12.07;8.57;;;;;;;;;;5085764;28;20206;-81
2024/01/20 09:25:38;;;;;;;10.20;7.20;;;;;;;;;;5098959;28;20342;-81
2024/01/20 09:28:06;;;;;;;12.18;7.90;;;;;;;;;;5077961;28;20904;-81
2024/01/20 09:30:35;;;;;;;11.65;8.85;;;;;;;;;;5082540;28;20221;-80
2024/01/20 09:33:04;;;;;;;12.88;10.10;;;;;;;;;;5082331;28;20205;-81
2024/01/20 09:35:33;;;;;;;13.43;10.13;;;;;;;;;;5094774;28;20270;-81
2024/01/20 09:38:00;;;;;;;15.00;10.18;;;;;;;;;;5084659;28;20276;-81
2024/01/20 09:40:29;;;;;;;13.05;8.95;;;;;;;;;;5088075;28;20206;-81
2024/01/20 09:42:56;;;;;;;12.00;9.50;;;;;;;;;;5097227;28;20212;-80
2024/01/20 09:45:24;;;;;;;12.98;8.13;;;;;;;;;;5090897;28;20700;-81
2024/01/20 09:47:52;;;;;;;9.05;7.15;;;;;;;;;;5091936;28;20596;-80
2024/01/20 09:50:19;;;;;;;11.15;8.63;;;;;;;;;;5088461;28;20220;-80
2024/01/20 09:52:59;;;;;;;13.85;8.68;;;;;;;;;;5093466;28;20204;-82
2024/01/20 09:55:27;;;;;;;13.57;9.40;;;;;;;;;;5093757;28;20247;-82
2024/01/20 09:57:56;;;;;;;11.68;9.05;;;;;;;;;;5099912;28;20545;-82
2024/01/20 10:00:25;;;;;;;12.82;9.23;;;;;;;;;;5099625;28;20192;-80
2024/01/20 10:02:53;;;;;;;10.70;8.45;;;;;;;;;;5095912;28;20200;-81
2024/01/20 10:05:25;;;;;;;13.02;10.27;;;;;;;;;;5099826;28;20216;-82
2024/01/20 10:07:54;;;;;;;13.68;9.02;;;;;;;;;;5090986;28;20709;-81
2024/01/20 10:10:22;;;;;;;15.25;10.63;;;;;;;;;;5090304;28;20216;-81
2024/01/20 10:12:51;;;;;;;12.20;8.90;;;;;;;;;;5092594;28;20201;-81
2024/01/20 10:15:22;;;;;;;11.80;8.50;;;;;;;;;;5099240;28;20227;-80
2024/01/20 10:17:50;;;;;;;14.60;10.48;;;;;;;;;;5094710;28;20196;-82
2024/01/20 10:20:22;;;;;;;11.77;8.73;;;;;;;;;;5096531;28;20207;-81
2024/01/20 10:22:50;;;;;;;14.02;9.82;;;;;;;;;;5094995;28;20236;-81
2024/01/20 10:25:20;;;;;;;12.18;8.98;;;;;;;;;;5099213;28;20690;-81
2024/01/20 10:27:48;;;;;;;12.20;9.30;;;;;;;;;;5088520;28;20295;-81
2024/01/20 10:30:17;;;;;;;12.10;9.73;;;;;;;;;;5098568;28;20228;-81
2024/01/20 10:32:45;;;;;;;11.18;9.02;;;;;;;;;;5098686;28;20223;-82
2024/01/20 10:35:13;;;;;;;13.70;10.18;;;;;;;;;;5093371;28;20228;-82
2024/01/20 10:37:42;;;;;;;12.18;9.27;;;;;;;;;;5092861;28;20671;-82
2024/01/20 10:40:13;;;;;;;9.95;7.53;;;;;;;;;;5086278;28;20215;-81
2024/01/20 10:42:45;;;;;;;12.63;9.23;;;;;;;;;;5098378;28;20204;-81
2024/01/20 10:45:19;;;;;;;13.77;10.43;;;;;;;;;;5083696;28;20227;-82
2024/01/20 10:48:05;;;;;;;16.52;11.20;;;;;;;;;;5098289;28;20271;-82
2024/01/20 10:50:32;;;;;;;13.50;10.68;;;;;;;;;;5096907;28;20218;-82
2024/01/20 10:53:00;;;;;;;16.55;11.10;;;;;;;;;;5097959;28;20262;-81
2024/01/20 10:55:27;;;;;;;15.48;10.63;;;;;;;;;;5098237;28;20238;-82
2024/01/20 10:57:58;;;;;;;15.25;11.65;;;;;;;;;;5094320;28;20215;-82
2024/01/20 11:00:26;;;;;;;11.95;9.80;;;;;;;;;;5095343;28;20259;-83
2024/01/20 11:02:53;;;;;;;19.33;12.63;;;;;;;;;;5091922;28;20207;-81
2024/01/20 11:05:24;;;;;;;17.77;13.93;;;;;;;;;;5098357;28;20224;-81
2024/01/20 11:08:06;;;;;;;12.80;9.48;;;;;;;;;;5088650;28;20311;-81
2024/01/20 11:10:40;;;;;;;13.55;10.10;;;;;;;;;;5097145;28;20311;-82
2024/01/20 11:13:11;;;;;;;13.18;10.35;;;;;;;;;;5086287;28;20208;-81
2024/01/20 11:15:40;;;;;;;16.13;10.07;;;;;;;;;;5098157;28;20228;-82
2024/01/20 11:18:18;;;;;;;13.35;10.07;;;;;;;;;;5078811;28;20836;-81
2024/01/20 11:20:57;;;;;;;15.30;10.18;;;;;;;;;;5097675;28;20196;-82
2024/01/20 11:23:24;;;;;;;12.50;10.13;;;;;;;;;;5098392;28;20283;-83
2024/01/20 11:25:53;;;;;;;13.60;10.23;;;;;;;;;;5088545;28;20273;-81
2024/01/20 11:28:32;;;;;;;11.05;8.48;;;;;;;;;;5092766;28;20226;-81
2024/01/20 11:31:00;;;;;;;10.98;9.88;;;;;;;;;;5097679;28;20215;-82
2024/01/20 11:33:27;;;;;;;15.52;10.93;;;;;;;;;;5097413;28;20210;-82
2024/01/20 11:35:55;;;;;;;17.27;11.25;;;;;;;;;;5092249;28;20221;-81
2024/01/20 11:38:23;;;;;;;11.98;9.68;;;;;;;;;;5094739;28;20204;-81
2024/01/20 11:40:59;;;;;;;12.10;8.90;;;;;;;;;;5094007;28;20667;-80
2024/01/20 11:43:28;;;;;;;12.85;10.25;;;;;;;;;;5091702;28;20203;-81
2024/01/20 11:45:57;;;;;;;13.80;10.02;;;;;;;;;;5095371;28;20683;-80
2024/01/20 11:48:24;;;;;;;12.60;10.20;;;;;;;;;;5095574;28;20605;-81
2024/01/20 11:50:53;;;;;;;15.10;10.20;;;;;;;;;;5091193;28;20306;-82
2024/01/20 11:53:21;;;;;;;15.38;10.93;;;;;;;;;;5086699;28;20204;-82
2024/01/20 11:55:58;;;;;;;12.25;10.00;;;;;;;;;;5090953;28;20220;-81
2024/01/20 11:58:26;;;;;;;13.23;9.73;;;;;;;;;;5097434;28;20287;-82
2024/01/20 12:00:56;;;;;;;11.93;9.50;;;;;;;;;;5081103;28;20220;-79
2024/01/20 12:03:23;;;;;;;15.18;10.90;;;;;;;;;;5093306;28;20581;-82
2024/01/20 12:05:51;;;;;;;14.75;10.10;;;;;;;;;;5084834;28;20216;-80
2024/01/20 12:08:19;;;;;;;13.05;10.25;;;;;;;;;;5096980;28;20228;-80
2024/01/20 12:10:47;;;;;;;11.63;9.10;;;;;;;;;;5088857;28;20226;-80
2024/01/20 12:13:15;;;;;;;12.85;9.82;;;;;;;;;;5080061;28;20280;-78
2024/01/20 12:15:43;;;;;;;14.85;11.38;;;;;;;;;;5092015;28;20224;-82
2024/01/20 12:18:11;;;;;;;15.18;9.80;;;;;;;;;;5082648;28;20219;-82
2024/01/20 12:20:40;;;;;;;14.73;11.55;;;;;;;;;;5095468;28;20670;-82
2024/01/20 12:23:07;;;;;;;14.82;11.27;;;;;;;;;;5097120;28;20231;-80
2024/01/20 12:25:35;;;;;;;14.32;10.48;;;;;;;;;;5094835;28;20277;-81
2024/01/20 12:28:02;;;;;;;11.48;9.48;;;;;;;;;;5093488;28;20658;-81
2024/01/20 12:30:30;;;;;;;11.35;9.68;;;;;;;;;;5095914;28;20308;-82
2024/01/20 12:32:58;;;;;;;14.00;9.68;;;;;;;;;;5096604;28;20639;-81
2024/01/20 12:35:26;;;;;;;13.88;10.35;;;;;;;;;;5091173;28;20299;-82
2024/01/20 12:37:55;;;;;;;16.20;10.35;;;;;;;;;;5092310;28;20336;-81
2024/01/20 12:40:24;;;;;;;12.20;10.27;;;;;;;;;;5094476;28;20662;-82
2024/01/20 12:42:52;;;;;;;12.27;9.80;;;;;;;;;;5095831;28;20197;-82
2024/01/20 12:45:19;;;;;;;13.32;9.88;;;;;;;;;;5094163;28;20226;-81
2024/01/20 12:47:47;;;;;;;9.10;8.02;;;;;;;;;;5092427;28;20201;-80
2024/01/20 12:50:15;;;;;;;17.27;11.38;;;;;;;;;;5090237;28;20288;-80
2024/01/20 12:52:44;;;;;;;13.80;9.95;;;;;;;;;;5095746;28;20200;-81
2024/01/20 12:55:12;;;;;;;12.68;9.75;;;;;;;;;;5086480;28;20226;-81
2024/01/20 12:57:39;;;;;;;11.55;9.05;;;;;;;;;;5097261;28;20204;-82
2024/01/20 13:00:10;;;;;;;13.23;9.35;;;;;;;;;;5096537;28;20580;-81
2024/01/20 13:02:38;;;;;;;17.27;12.70;;;;;;;;;;5089377;28;20251;-82
2024/01/20 13:05:06;;;;;;;15.45;11.85;;;;;;;;;;5097676;28;20219;-82
2024/01/20 13:07:34;;;;;;;19.83;12.23;;;;;;;;;;5094985;28;20719;-82
2024/01/20 13:10:03;;;;;;;16.27;11.30;;;;;;;;;;5098003;28;20664;-81
2024/01/20 13:12:31;;;;;;;12.55;11.23;;;;;;;;;;5099341;28;20307;-82
2024/01/20 13:14:58;;;;;;;12.45;8.90;;;;;;;;;;5099647;28;20687;-81
2024/01/20 13:17:26;;;;;;;11.85;9.43;;;;;;;;;;5099804;28;20211;-81
2024/01/20 13:19:53;;;;;;;14.77;11.48;;;;;;;;;;5093346;28;20211;-82
2024/01/20 13:22:21;;;;;;;12.75;11.35;;;;;;;;;;5089640;28;20246;-82
2024/01/20 13:24:48;;;;;;;17.40;11.90;;;;;;;;;;5099902;28;20674;-81
2024/01/20 13:27:17;;;;;;;18.27;13.10;;;;;;;;;;5099854;28;20201;-82
2024/01/20 13:29:45;;;;;;;18.60;12.57;;;;;;;;;;5096808;28;20207;-82
2024/01/20 13:32:13;;;;;;;15.95;11.98;;;;;;;;;;5100561;28;20315;-82
2024/01/20 13:34:41;;;;;;;16.40;12.50;;;;;;;;;;5100540;28;20228;-81
2024/01/20 13:37:08;;;;;;;16.08;12.20;;;;;;;;;;5088045;28;20200;-82
2024/01/20 13:39:36;;;;;;;16.00;11.82;;;;;;;;;;5079650;28;20200;-80
2024/01/20 13:42:06;;;;;;;17.52;12.25;;;;;;;;;;5085061;28;20201;-81
2024/01/20 13:44:35;;;;;;;13.38;10.13;;;;;;;;;;5078326;28;20227;-82
2024/01/20 13:47:06;;;;;;;14.45;9.80;;;;;;;;;;5078315;28;20207;-80
2024/01/20 13:49:33;;;;;;;17.08;11.93;;;;;;;;;;5078327;28;20186;-81
2024/01/20 13:52:01;;;;;;;16.38;11.95;;;;;;;;;;5078249;28;20232;-82
2024/01/20 13:54:28;;;;;;;16.73;10.93;;;;;;;;;;5078183;28;20201;-81
2024/01/20 13:56:56;;;;;;;15.32;11.80;;;;;;;;;;5078524;28;20208;-82
2024/01/20 13:59:26;;;;;;;15.75;11.30;;;;;;;;;;5078338;28;20631;-78
2024/01/20 14:01:55;;;;;;;17.00;11.77;;;;;;;;;;5078525;28;20189;-80
2024/01/20 14:04:23;;;;;;;16.02;11.50;;;;;;;;;;5078504;28;20193;-81
2024/01/20 14:06:50;;;;;;;16.55;12.15;;;;;;;;;;5078458;28;20200;-79
2024/01/20 14:09:18;;;;;;;15.55;11.10;;;;;;;;;;5077716;28;20196;-82
2024/01/20 14:11:45;;;;;;;14.38;11.20;;;;;;;;;;5076828;28;20662;-82
2024/01/20 14:14:14;;;;;;;15.15;11.40;;;;;;;;;;5077005;28;20244;-81
2024/01/20 14:16:41;;;;;;;13.68;10.13;;;;;;;;;;5078145;28;20266;-82
2024/01/20 14:19:10;;;;;;;17.05;12.20;;;;;;;;;;5077566;28;20219;-81
2024/01/20 14:21:37;;;;;;;15.95;11.77;;;;;;;;;;5077330;28;20660;-81
2024/01/20 14:24:05;;;;;;;18.83;11.38;;;;;;;;;;5077459;28;20197;-79
2024/01/20 14:26:33;;;;;;;18.05;12.90;;;;;;;;;;5077407;28;20251;-82
2024/01/20 14:29:00;;;;;;;16.70;11.55;;;;;;;;;;5076963;28;20205;-82
2024/01/20 14:31:28;;;;;;;17.08;10.98;;;;;;;;;;5077198;28;20207;-81
2024/01/20 14:33:56;;;;;;;16.08;11.57;;;;;;;;;;5080927;28;20578;-84